sensor_id;sensor_type;location;lat;lon;timestamp;P1;durP1;ratioP1;P2;durP2;ratioP2
4686;SDS011;2357;47.316;-1.348;2023-05-20T00:00:56;16.43;;;5.37;;
4686;SDS011;2357;47.316;-1.348;2023-05-20T00:03:22;7.63;;;5.73;;
4686;SDS011;2357;47.316;-1.348;2023-05-20T00:05:47;13.70;;;6.70;;
4686;SDS011;2357;47.316;-1.348;2023-05-20T00:08:13;15.70;;;5.70;;
4686;SDS011;2357;47.316;-1.348;2023-05-20T00:10:39;17.77;;;7.60;;
4686;SDS011;2357;47.316;-1.348;2023-05-20T00:13:05;10.57;;;6.47;;
4686;SDS011;2357;47.316;-1.348;2023-05-20T00:15:31;12.97;;;6.40;;
4686;SDS011;2357;47.316;-1.348;2023-05-20T00:17:59;14.53;;;6.60;;
4686;SDS011;2357;47.316;-1.348;2023-05-20T00:20:26;12.53;;;6.20;;
4686;SDS011;2357;47.316;-1.348;2023-05-20T00:22:51;29.27;;;9.50;;
4686;SDS011;2357;47.316;-1.348;2023-05-20T00:25:17;8.97;;;5.83;;
4686;SDS011;2357;47.316;-1.348;2023-05-20T00:27:43;15.47;;;6.73;;
4686;SDS011;2357;47.316;-1.348;2023-05-20T00:30:08;7.67;;;6.00;;
4686;SDS011;2357;47.316;-1.348;2023-05-20T00:32:34;10.13;;;5.97;;
4686;SDS011;2357;47.316;-1.348;2023-05-20T00:35:01;10.80;;;5.50;;
4686;SDS011;2357;47.316;-1.348;2023-05-20T00:37:27;19.07;;;7.10;;
4686;SDS011;2357;47.316;-1.348;2023-05-20T00:39:53;10.70;;;6.17;;
4686;SDS011;2357;47.316;-1.348;2023-05-20T00:42:22;10.10;;;5.53;;
4686;SDS011;2357;47.316;-1.348;2023-05-20T00:44:52;13.80;;;6.30;;
4686;SDS011;2357;47.316;-1.348;2023-05-20T00:47:19;11.50;;;5.87;;
4686;SDS011;2357;47.316;-1.348;2023-05-20T00:49:48;8.73;;;5.77;;
4686;SDS011;2357;47.316;-1.348;2023-05-20T00:52:15;12.67;;;6.73;;
4686;SDS011;2357;47.316;-1.348;2023-05-20T00:54:41;9.33;;;5.67;;
4686;SDS011;2357;47.316;-1.348;2023-05-20T00:57:07;12.77;;;6.23;;
4686;SDS011;2357;47.316;-1.348;2023-05-20T00:59:35;12.27;;;5.87;;
4686;SDS011;2357;47.316;-1.348;2023-05-20T01:02:01;13.20;;;6.60;;
4686;SDS011;2357;47.316;-1.348;2023-05-20T01:04:28;19.47;;;7.00;;
4686;SDS011;2357;47.316;-1.348;2023-05-20T01:06:54;14.03;;;6.50;;
4686;SDS011;2357;47.316;-1.348;2023-05-20T01:09:21;15.60;;;8.07;;
4686;SDS011;2357;47.316;-1.348;2023-05-20T01:11:55;10.47;;;6.03;;
4686;SDS011;2357;47.316;-1.348;2023-05-20T01:14:23;10.00;;;6.50;;
4686;SDS011;2357;47.316;-1.348;2023-05-20T01:16:52;10.37;;;5.87;;
4686;SDS011;2357;47.316;-1.348;2023-05-20T01:19:41;18.50;;;6.13;;
4686;SDS011;2357;47.316;-1.348;2023-05-20T01:22:08;12.80;;;5.97;;
4686;SDS011;2357;47.316;-1.348;2023-05-20T01:24:37;9.60;;;5.97;;
4686;SDS011;2357;47.316;-1.348;2023-05-20T01:27:04;20.03;;;6.70;;
4686;SDS011;2357;47.316;-1.348;2023-05-20T01:29:35;17.33;;;7.87;;
4686;SDS011;2357;47.316;-1.348;2023-05-20T01:32:26;12.17;;;6.17;;
4686;SDS011;2357;47.316;-1.348;2023-05-20T01:34:52;11.60;;;5.40;;
4686;SDS011;2357;47.316;-1.348;2023-05-20T01:37:18;15.77;;;7.10;;
4686;SDS011;2357;47.316;-1.348;2023-05-20T01:39:46;13.00;;;6.23;;
4686;SDS011;2357;47.316;-1.348;2023-05-20T01:42:13;19.47;;;6.27;;
4686;SDS011;2357;47.316;-1.348;2023-05-20T01:44:40;11.33;;;6.53;;
4686;SDS011;2357;47.316;-1.348;2023-05-20T01:47:06;11.03;;;6.07;;
4686;SDS011;2357;47.316;-1.348;2023-05-20T01:49:31;24.00;;;6.40;;
4686;SDS011;2357;47.316;-1.348;2023-05-20T01:51:57;13.80;;;6.30;;
4686;SDS011;2357;47.316;-1.348;2023-05-20T01:54:23;14.53;;;6.90;;
4686;SDS011;2357;47.316;-1.348;2023-05-20T01:56:49;12.33;;;6.73;;
4686;SDS011;2357;47.316;-1.348;2023-05-20T01:59:14;8.37;;;5.70;;
4686;SDS011;2357;47.316;-1.348;2023-05-20T02:01:40;13.63;;;6.93;;
4686;SDS011;2357;47.316;-1.348;2023-05-20T02:04:06;11.63;;;6.23;;
4686;SDS011;2357;47.316;-1.348;2023-05-20T02:06:31;10.90;;;5.67;;
4686;SDS011;2357;47.316;-1.348;2023-05-20T02:08:57;19.53;;;5.90;;
4686;SDS011;2357;47.316;-1.348;2023-05-20T02:11:22;20.03;;;7.00;;
4686;SDS011;2357;47.316;-1.348;2023-05-20T02:13:48;13.20;;;6.03;;
4686;SDS011;2357;47.316;-1.348;2023-05-20T02:16:15;12.67;;;6.47;;
4686;SDS011;2357;47.316;-1.348;2023-05-20T02:18:41;16.30;;;7.37;;
4686;SDS011;2357;47.316;-1.348;2023-05-20T02:21:07;13.07;;;6.60;;
4686;SDS011;2357;47.316;-1.348;2023-05-20T02:23:32;8.90;;;6.87;;
4686;SDS011;2357;47.316;-1.348;2023-05-20T02:25:58;13.77;;;7.10;;
4686;SDS011;2357;47.316;-1.348;2023-05-20T02:28:25;13.70;;;6.07;;
4686;SDS011;2357;47.316;-1.348;2023-05-20T02:30:50;16.00;;;6.50;;
4686;SDS011;2357;47.316;-1.348;2023-05-20T02:33:16;12.60;;;6.40;;
4686;SDS011;2357;47.316;-1.348;2023-05-20T02:35:42;19.83;;;6.53;;
4686;SDS011;2357;47.316;-1.348;2023-05-20T02:38:09;9.70;;;5.37;;
4686;SDS011;2357;47.316;-1.348;2023-05-20T02:40:35;13.23;;;6.20;;
4686;SDS011;2357;47.316;-1.348;2023-05-20T02:43:00;13.80;;;7.00;;
4686;SDS011;2357;47.316;-1.348;2023-05-20T02:45:26;19.13;;;7.17;;
4686;SDS011;2357;47.316;-1.348;2023-05-20T02:47:52;18.37;;;6.73;;
4686;SDS011;2357;47.316;-1.348;2023-05-20T02:50:18;15.03;;;7.30;;
4686;SDS011;2357;47.316;-1.348;2023-05-20T02:52:43;15.30;;;6.23;;
4686;SDS011;2357;47.316;-1.348;2023-05-20T02:55:09;17.37;;;7.67;;
4686;SDS011;2357;47.316;-1.348;2023-05-20T02:57:35;10.13;;;6.30;;
4686;SDS011;2357;47.316;-1.348;2023-05-20T03:00:05;14.90;;;5.97;;
4686;SDS011;2357;47.316;-1.348;2023-05-20T03:02:32;8.50;;;5.90;;
4686;SDS011;2357;47.316;-1.348;2023-05-20T03:04:58;15.33;;;6.83;;
4686;SDS011;2357;47.316;-1.348;2023-05-20T03:07:24;11.87;;;7.80;;
4686;SDS011;2357;47.316;-1.348;2023-05-20T03:09:50;12.30;;;6.43;;
4686;SDS011;2357;47.316;-1.348;2023-05-20T03:12:16;14.37;;;7.83;;
4686;SDS011;2357;47.316;-1.348;2023-05-20T03:14:41;13.33;;;7.27;;
4686;SDS011;2357;47.316;-1.348;2023-05-20T03:17:07;12.50;;;6.80;;
4686;SDS011;2357;47.316;-1.348;2023-05-20T03:19:34;15.40;;;7.10;;
4686;SDS011;2357;47.316;-1.348;2023-05-20T03:21:59;11.40;;;7.00;;
4686;SDS011;2357;47.316;-1.348;2023-05-20T03:24:26;19.30;;;6.93;;
4686;SDS011;2357;47.316;-1.348;2023-05-20T03:26:52;12.03;;;6.97;;
4686;SDS011;2357;47.316;-1.348;2023-05-20T03:29:18;8.40;;;5.80;;
4686;SDS011;2357;47.316;-1.348;2023-05-20T03:31:44;11.13;;;6.47;;
4686;SDS011;2357;47.316;-1.348;2023-05-20T03:34:10;18.30;;;7.77;;
4686;SDS011;2357;47.316;-1.348;2023-05-20T03:36:35;13.80;;;6.63;;
4686;SDS011;2357;47.316;-1.348;2023-05-20T03:39:01;15.30;;;7.87;;
4686;SDS011;2357;47.316;-1.348;2023-05-20T03:41:28;8.77;;;6.40;;
4686;SDS011;2357;47.316;-1.348;2023-05-20T03:43:53;15.97;;;7.20;;
4686;SDS011;2357;47.316;-1.348;2023-05-20T03:46:19;18.40;;;7.80;;
4686;SDS011;2357;47.316;-1.348;2023-05-20T03:48:45;11.37;;;6.60;;
4686;SDS011;2357;47.316;-1.348;2023-05-20T03:51:10;15.47;;;6.97;;
4686;SDS011;2357;47.316;-1.348;2023-05-20T03:53:36;11.13;;;6.10;;
4686;SDS011;2357;47.316;-1.348;2023-05-20T03:56:02;17.83;;;5.63;;
4686;SDS011;2357;47.316;-1.348;2023-05-20T03:58:27;15.67;;;7.40;;
4686;SDS011;2357;47.316;-1.348;2023-05-20T04:00:54;12.40;;;7.70;;
4686;SDS011;2357;47.316;-1.348;2023-05-20T04:03:19;14.17;;;7.40;;
4686;SDS011;2357;47.316;-1.348;2023-05-20T04:05:46;15.83;;;7.23;;
4686;SDS011;2357;47.316;-1.348;2023-05-20T04:08:12;9.53;;;6.50;;
4686;SDS011;2357;47.316;-1.348;2023-05-20T04:10:39;12.83;;;7.10;;
4686;SDS011;2357;47.316;-1.348;2023-05-20T04:13:06;17.60;;;7.23;;
4686;SDS011;2357;47.316;-1.348;2023-05-20T04:15:34;10.43;;;6.60;;
4686;SDS011;2357;47.316;-1.348;2023-05-20T04:18:00;13.00;;;7.00;;
4686;SDS011;2357;47.316;-1.348;2023-05-20T04:20:26;14.50;;;6.90;;
4686;SDS011;2357;47.316;-1.348;2023-05-20T04:22:52;14.93;;;6.73;;
4686;SDS011;2357;47.316;-1.348;2023-05-20T04:25:18;12.50;;;7.10;;
4686;SDS011;2357;47.316;-1.348;2023-05-20T04:27:44;12.30;;;6.80;;
4686;SDS011;2357;47.316;-1.348;2023-05-20T04:30:10;19.50;;;7.50;;
4686;SDS011;2357;47.316;-1.348;2023-05-20T04:32:36;12.50;;;6.30;;
4686;SDS011;2357;47.316;-1.348;2023-05-20T04:35:02;11.73;;;7.13;;
4686;SDS011;2357;47.316;-1.348;2023-05-20T04:37:32;19.70;;;7.50;;
4686;SDS011;2357;47.316;-1.348;2023-05-20T04:39:58;11.10;;;6.60;;
4686;SDS011;2357;47.316;-1.348;2023-05-20T04:42:30;10.80;;;6.90;;
4686;SDS011;2357;47.316;-1.348;2023-05-20T04:44:56;14.83;;;6.83;;
4686;SDS011;2357;47.316;-1.348;2023-05-20T04:47:23;10.03;;;7.57;;
4686;SDS011;2357;47.316;-1.348;2023-05-20T04:49:49;11.50;;;7.93;;
4686;SDS011;2357;47.316;-1.348;2023-05-20T04:52:15;16.20;;;8.20;;
4686;SDS011;2357;47.316;-1.348;2023-05-20T04:54:40;10.70;;;7.43;;
4686;SDS011;2357;47.316;-1.348;2023-05-20T04:57:06;11.40;;;6.10;;
4686;SDS011;2357;47.316;-1.348;2023-05-20T04:59:31;26.43;;;7.67;;
4686;SDS011;2357;47.316;-1.348;2023-05-20T05:01:57;11.30;;;7.50;;
4686;SDS011;2357;47.316;-1.348;2023-05-20T05:04:23;17.20;;;8.00;;
4686;SDS011;2357;47.316;-1.348;2023-05-20T05:06:48;11.83;;;7.20;;
4686;SDS011;2357;47.316;-1.348;2023-05-20T05:09:14;15.53;;;7.53;;
4686;SDS011;2357;47.316;-1.348;2023-05-20T05:11:40;14.57;;;7.23;;
4686;SDS011;2357;47.316;-1.348;2023-05-20T05:14:05;15.37;;;8.23;;
4686;SDS011;2357;47.316;-1.348;2023-05-20T05:16:31;14.73;;;7.73;;
4686;SDS011;2357;47.316;-1.348;2023-05-20T05:18:57;17.77;;;8.53;;
4686;SDS011;2357;47.316;-1.348;2023-05-20T05:21:22;12.93;;;7.10;;
4686;SDS011;2357;47.316;-1.348;2023-05-20T05:23:48;15.33;;;8.60;;
4686;SDS011;2357;47.316;-1.348;2023-05-20T05:26:13;13.30;;;7.70;;
4686;SDS011;2357;47.316;-1.348;2023-05-20T05:28:40;15.07;;;7.10;;
4686;SDS011;2357;47.316;-1.348;2023-05-20T05:31:07;16.40;;;7.60;;
4686;SDS011;2357;47.316;-1.348;2023-05-20T05:33:33;10.53;;;6.77;;
4686;SDS011;2357;47.316;-1.348;2023-05-20T05:35:58;8.77;;;6.53;;
4686;SDS011;2357;47.316;-1.348;2023-05-20T05:38:25;12.73;;;6.67;;
4686;SDS011;2357;47.316;-1.348;2023-05-20T05:40:51;12.37;;;6.77;;
4686;SDS011;2357;47.316;-1.348;2023-05-20T05:43:17;12.33;;;6.30;;
4686;SDS011;2357;47.316;-1.348;2023-05-20T05:45:42;16.47;;;7.23;;
4686;SDS011;2357;47.316;-1.348;2023-05-20T05:48:08;30.83;;;5.93;;
4686;SDS011;2357;47.316;-1.348;2023-05-20T05:50:34;12.87;;;6.97;;
4686;SDS011;2357;47.316;-1.348;2023-05-20T05:52:59;14.57;;;6.73;;
4686;SDS011;2357;47.316;-1.348;2023-05-20T05:55:25;15.13;;;6.93;;
4686;SDS011;2357;47.316;-1.348;2023-05-20T05:57:51;15.27;;;6.90;;
4686;SDS011;2357;47.316;-1.348;2023-05-20T06:00:17;9.53;;;6.30;;
4686;SDS011;2357;47.316;-1.348;2023-05-20T06:02:42;23.40;;;7.50;;
4686;SDS011;2357;47.316;-1.348;2023-05-20T06:05:08;12.03;;;6.40;;
4686;SDS011;2357;47.316;-1.348;2023-05-20T06:07:34;13.37;;;6.63;;
4686;SDS011;2357;47.316;-1.348;2023-05-20T06:10:00;8.20;;;5.47;;
4686;SDS011;2357;47.316;-1.348;2023-05-20T06:12:25;10.70;;;6.43;;
4686;SDS011;2357;47.316;-1.348;2023-05-20T06:14:51;14.93;;;6.83;;
4686;SDS011;2357;47.316;-1.348;2023-05-20T06:17:17;18.13;;;7.20;;
4686;SDS011;2357;47.316;-1.348;2023-05-20T06:19:42;17.80;;;7.20;;
4686;SDS011;2357;47.316;-1.348;2023-05-20T06:22:08;11.20;;;5.90;;
4686;SDS011;2357;47.316;-1.348;2023-05-20T06:24:33;17.67;;;7.00;;
4686;SDS011;2357;47.316;-1.348;2023-05-20T06:26:59;9.30;;;6.00;;
4686;SDS011;2357;47.316;-1.348;2023-05-20T06:29:25;14.93;;;6.60;;
4686;SDS011;2357;47.316;-1.348;2023-05-20T06:31:51;13.90;;;5.60;;
4686;SDS011;2357;47.316;-1.348;2023-05-20T06:34:16;12.00;;;6.50;;
4686;SDS011;2357;47.316;-1.348;2023-05-20T06:36:42;11.97;;;6.57;;
4686;SDS011;2357;47.316;-1.348;2023-05-20T06:39:07;16.93;;;6.93;;
4686;SDS011;2357;47.316;-1.348;2023-05-20T06:41:37;17.03;;;7.50;;
4686;SDS011;2357;47.316;-1.348;2023-05-20T06:44:03;13.40;;;6.20;;
4686;SDS011;2357;47.316;-1.348;2023-05-20T06:46:29;20.13;;;6.80;;
4686;SDS011;2357;47.316;-1.348;2023-05-20T06:48:55;14.90;;;6.50;;
4686;SDS011;2357;47.316;-1.348;2023-05-20T06:51:21;14.93;;;7.20;;
4686;SDS011;2357;47.316;-1.348;2023-05-20T06:53:46;9.40;;;6.73;;
4686;SDS011;2357;47.316;-1.348;2023-05-20T06:56:12;14.83;;;7.67;;
4686;SDS011;2357;47.316;-1.348;2023-05-20T06:58:38;19.13;;;6.73;;
4686;SDS011;2357;47.316;-1.348;2023-05-20T07:01:03;11.87;;;6.13;;
4686;SDS011;2357;47.316;-1.348;2023-05-20T07:03:29;14.97;;;6.50;;
4686;SDS011;2357;47.316;-1.348;2023-05-20T07:05:55;15.37;;;6.63;;
4686;SDS011;2357;47.316;-1.348;2023-05-20T07:08:20;18.27;;;7.73;;
4686;SDS011;2357;47.316;-1.348;2023-05-20T07:10:46;18.30;;;7.40;;
4686;SDS011;2357;47.316;-1.348;2023-05-20T07:13:11;18.47;;;7.40;;
4686;SDS011;2357;47.316;-1.348;2023-05-20T07:15:37;23.60;;;7.67;;
4686;SDS011;2357;47.316;-1.348;2023-05-20T07:18:03;15.63;;;6.77;;
4686;SDS011;2357;47.316;-1.348;2023-05-20T07:20:28;12.27;;;6.73;;
4686;SDS011;2357;47.316;-1.348;2023-05-20T07:22:54;12.50;;;7.03;;
4686;SDS011;2357;47.316;-1.348;2023-05-20T07:25:20;14.30;;;6.20;;
4686;SDS011;2357;47.316;-1.348;2023-05-20T07:27:46;13.27;;;7.20;;
4686;SDS011;2357;47.316;-1.348;2023-05-20T07:30:12;11.33;;;7.50;;
4686;SDS011;2357;47.316;-1.348;2023-05-20T07:32:37;13.00;;;6.47;;
4686;SDS011;2357;47.316;-1.348;2023-05-20T07:35:03;15.80;;;6.97;;
4686;SDS011;2357;47.316;-1.348;2023-05-20T07:37:29;21.27;;;7.37;;
4686;SDS011;2357;47.316;-1.348;2023-05-20T07:39:55;16.67;;;8.57;;
4686;SDS011;2357;47.316;-1.348;2023-05-20T07:42:20;18.50;;;6.97;;
4686;SDS011;2357;47.316;-1.348;2023-05-20T07:44:46;23.83;;;7.13;;
4686;SDS011;2357;47.316;-1.348;2023-05-20T07:47:12;15.70;;;5.83;;
4686;SDS011;2357;47.316;-1.348;2023-05-20T07:49:38;13.03;;;6.47;;
4686;SDS011;2357;47.316;-1.348;2023-05-20T07:52:04;30.10;;;8.40;;
4686;SDS011;2357;47.316;-1.348;2023-05-20T07:54:29;15.90;;;6.23;;
4686;SDS011;2357;47.316;-1.348;2023-05-20T07:56:55;13.60;;;6.50;;
4686;SDS011;2357;47.316;-1.348;2023-05-20T07:59:21;15.83;;;6.70;;
4686;SDS011;2357;47.316;-1.348;2023-05-20T08:01:46;19.60;;;6.70;;
4686;SDS011;2357;47.316;-1.348;2023-05-20T08:04:12;13.67;;;6.00;;
4686;SDS011;2357;47.316;-1.348;2023-05-20T08:06:38;10.37;;;5.70;;
4686;SDS011;2357;47.316;-1.348;2023-05-20T08:09:03;21.90;;;7.70;;
4686;SDS011;2357;47.316;-1.348;2023-05-20T08:11:29;12.27;;;5.60;;
4686;SDS011;2357;47.316;-1.348;2023-05-20T08:13:55;10.67;;;5.87;;
4686;SDS011;2357;47.316;-1.348;2023-05-20T08:16:20;15.00;;;5.80;;
4686;SDS011;2357;47.316;-1.348;2023-05-20T08:18:46;13.80;;;6.30;;
4686;SDS011;2357;47.316;-1.348;2023-05-20T08:21:12;15.03;;;6.50;;
4686;SDS011;2357;47.316;-1.348;2023-05-20T08:23:38;20.43;;;7.20;;
4686;SDS011;2357;47.316;-1.348;2023-05-20T08:26:03;9.30;;;5.70;;
4686;SDS011;2357;47.316;-1.348;2023-05-20T08:28:29;17.60;;;6.70;;
4686;SDS011;2357;47.316;-1.348;2023-05-20T08:30:55;26.27;;;6.80;;
4686;SDS011;2357;47.316;-1.348;2023-05-20T08:33:22;18.43;;;7.00;;
4686;SDS011;2357;47.316;-1.348;2023-05-20T08:35:48;13.13;;;6.80;;
4686;SDS011;2357;47.316;-1.348;2023-05-20T08:38:13;19.77;;;6.77;;
4686;SDS011;2357;47.316;-1.348;2023-05-20T08:40:39;11.73;;;5.67;;
4686;SDS011;2357;47.316;-1.348;2023-05-20T08:43:05;20.80;;;6.43;;
4686;SDS011;2357;47.316;-1.348;2023-05-20T08:45:31;16.20;;;6.77;;
4686;SDS011;2357;47.316;-1.348;2023-05-20T08:47:58;14.53;;;7.10;;
4686;SDS011;2357;47.316;-1.348;2023-05-20T08:50:25;13.83;;;5.40;;
4686;SDS011;2357;47.316;-1.348;2023-05-20T08:52:51;18.30;;;7.40;;
4686;SDS011;2357;47.316;-1.348;2023-05-20T08:55:18;11.40;;;5.60;;
4686;SDS011;2357;47.316;-1.348;2023-05-20T08:57:57;15.50;;;6.40;;
4686;SDS011;2357;47.316;-1.348;2023-05-20T09:00:23;10.33;;;6.60;;
4686;SDS011;2357;47.316;-1.348;2023-05-20T09:02:52;9.90;;;5.80;;
4686;SDS011;2357;47.316;-1.348;2023-05-20T09:05:19;13.20;;;6.37;;
4686;SDS011;2357;47.316;-1.348;2023-05-20T09:07:45;10.73;;;4.93;;
4686;SDS011;2357;47.316;-1.348;2023-05-20T09:10:11;19.17;;;6.47;;
4686;SDS011;2357;47.316;-1.348;2023-05-20T09:12:37;17.10;;;7.00;;
4686;SDS011;2357;47.316;-1.348;2023-05-20T09:15:03;14.50;;;8.07;;
4686;SDS011;2357;47.316;-1.348;2023-05-20T09:17:29;11.80;;;5.20;;
4686;SDS011;2357;47.316;-1.348;2023-05-20T09:19:55;15.10;;;6.60;;
4686;SDS011;2357;47.316;-1.348;2023-05-20T09:22:24;12.57;;;5.77;;
4686;SDS011;2357;47.316;-1.348;2023-05-20T09:24:52;15.23;;;6.00;;
4686;SDS011;2357;47.316;-1.348;2023-05-20T09:27:19;11.67;;;6.10;;
4686;SDS011;2357;47.316;-1.348;2023-05-20T09:29:48;16.93;;;5.80;;
4686;SDS011;2357;47.316;-1.348;2023-05-20T09:32:14;14.47;;;6.20;;
4686;SDS011;2357;47.316;-1.348;2023-05-20T09:34:40;16.03;;;5.60;;
4686;SDS011;2357;47.316;-1.348;2023-05-20T09:37:07;16.83;;;5.80;;
4686;SDS011;2357;47.316;-1.348;2023-05-20T09:39:40;14.77;;;5.10;;
4686;SDS011;2357;47.316;-1.348;2023-05-20T09:42:41;16.43;;;5.87;;
4686;SDS011;2357;47.316;-1.348;2023-05-20T09:45:10;14.90;;;5.40;;
4686;SDS011;2357;47.316;-1.348;2023-05-20T09:47:39;10.73;;;4.73;;
4686;SDS011;2357;47.316;-1.348;2023-05-20T09:50:07;11.60;;;4.90;;
4686;SDS011;2357;47.316;-1.348;2023-05-20T09:52:37;20.87;;;5.90;;
4686;SDS011;2357;47.316;-1.348;2023-05-20T09:55:04;19.93;;;5.60;;
4686;SDS011;2357;47.316;-1.348;2023-05-20T09:57:33;12.17;;;5.17;;
4686;SDS011;2357;47.316;-1.348;2023-05-20T10:00:00;15.40;;;5.87;;
4686;SDS011;2357;47.316;-1.348;2023-05-20T10:02:27;12.70;;;4.97;;
4686;SDS011;2357;47.316;-1.348;2023-05-20T10:04:53;12.30;;;4.77;;
4686;SDS011;2357;47.316;-1.348;2023-05-20T10:10:20;9.10;;;4.77;;
4686;SDS011;2357;47.316;-1.348;2023-05-20T10:15:43;9.57;;;4.10;;
4686;SDS011;2357;47.316;-1.348;2023-05-20T10:18:35;5.90;;;3.43;;
4686;SDS011;2357;47.316;-1.348;2023-05-20T10:21:16;8.43;;;4.43;;
4686;SDS011;2357;47.316;-1.348;2023-05-20T10:23:43;5.43;;;3.70;;
4686;SDS011;2357;47.316;-1.348;2023-05-20T10:26:08;7.43;;;4.03;;
4686;SDS011;2357;47.316;-1.348;2023-05-20T10:28:35;5.83;;;3.40;;
4686;SDS011;2357;47.316;-1.348;2023-05-20T10:31:01;9.20;;;3.83;;
4686;SDS011;2357;47.316;-1.348;2023-05-20T10:33:41;11.90;;;4.30;;
4686;SDS011;2357;47.316;-1.348;2023-05-20T10:36:08;15.90;;;3.87;;
4686;SDS011;2357;47.316;-1.348;2023-05-20T10:38:34;8.70;;;4.00;;
4686;SDS011;2357;47.316;-1.348;2023-05-20T10:41:09;10.30;;;3.07;;
4686;SDS011;2357;47.316;-1.348;2023-05-20T10:43:37;7.73;;;3.83;;
4686;SDS011;2357;47.316;-1.348;2023-05-20T10:46:03;8.57;;;4.70;;
4686;SDS011;2357;47.316;-1.348;2023-05-20T10:48:31;7.50;;;3.63;;
4686;SDS011;2357;47.316;-1.348;2023-05-20T10:50:58;22.97;;;4.00;;
4686;SDS011;2357;47.316;-1.348;2023-05-20T10:53:28;9.17;;;4.17;;
4686;SDS011;2357;47.316;-1.348;2023-05-20T10:56:01;11.03;;;3.60;;
4686;SDS011;2357;47.316;-1.348;2023-05-20T10:58:35;12.97;;;4.27;;
4686;SDS011;2357;47.316;-1.348;2023-05-20T11:01:02;5.77;;;3.03;;
4686;SDS011;2357;47.316;-1.348;2023-05-20T11:03:28;5.70;;;3.57;;
4686;SDS011;2357;47.316;-1.348;2023-05-20T11:05:54;12.27;;;3.63;;
4686;SDS011;2357;47.316;-1.348;2023-05-20T11:08:20;8.00;;;2.67;;
4686;SDS011;2357;47.316;-1.348;2023-05-20T11:10:46;9.67;;;3.10;;
4686;SDS011;2357;47.316;-1.348;2023-05-20T11:13:12;5.60;;;3.30;;
4686;SDS011;2357;47.316;-1.348;2023-05-20T11:15:39;7.97;;;2.83;;
4686;SDS011;2357;47.316;-1.348;2023-05-20T11:18:06;14.37;;;3.30;;
4686;SDS011;2357;47.316;-1.348;2023-05-20T11:20:31;5.10;;;2.80;;
4686;SDS011;2357;47.316;-1.348;2023-05-20T11:23:00;3.83;;;2.83;;
4686;SDS011;2357;47.316;-1.348;2023-05-20T11:25:27;7.40;;;2.77;;
4686;SDS011;2357;47.316;-1.348;2023-05-20T11:27:53;11.93;;;3.20;;
4686;SDS011;2357;47.316;-1.348;2023-05-20T11:30:18;2.57;;;2.37;;
4686;SDS011;2357;47.316;-1.348;2023-05-20T11:33:00;5.63;;;2.80;;
4686;SDS011;2357;47.316;-1.348;2023-05-20T11:35:27;6.97;;;2.17;;
4686;SDS011;2357;47.316;-1.348;2023-05-20T11:38:03;6.13;;;2.80;;
4686;SDS011;2357;47.316;-1.348;2023-05-20T11:40:33;6.80;;;2.97;;
4686;SDS011;2357;47.316;-1.348;2023-05-20T11:43:00;8.40;;;4.33;;
4686;SDS011;2357;47.316;-1.348;2023-05-20T11:45:27;3.23;;;2.43;;
4686;SDS011;2357;47.316;-1.348;2023-05-20T11:48:06;6.73;;;2.90;;
4686;SDS011;2357;47.316;-1.348;2023-05-20T11:50:37;7.80;;;3.63;;
4686;SDS011;2357;47.316;-1.348;2023-05-20T11:53:08;7.60;;;2.70;;
4686;SDS011;2357;47.316;-1.348;2023-05-20T11:58:11;16.43;;;4.03;;
4686;SDS011;2357;47.316;-1.348;2023-05-20T12:00:41;2.77;;;2.23;;
4686;SDS011;2357;47.316;-1.348;2023-05-20T12:03:07;7.53;;;2.60;;
4686;SDS011;2357;47.316;-1.348;2023-05-20T12:05:32;12.87;;;2.50;;
4686;SDS011;2357;47.316;-1.348;2023-05-20T12:07:58;5.63;;;2.57;;
4686;SDS011;2357;47.316;-1.348;2023-05-20T12:10:24;9.20;;;2.80;;
4686;SDS011;2357;47.316;-1.348;2023-05-20T12:12:49;3.03;;;2.17;;
4686;SDS011;2357;47.316;-1.348;2023-05-20T12:15:15;5.50;;;2.43;;
4686;SDS011;2357;47.316;-1.348;2023-05-20T12:17:45;2.50;;;1.83;;
4686;SDS011;2357;47.316;-1.348;2023-05-20T12:20:16;3.53;;;2.10;;
4686;SDS011;2357;47.316;-1.348;2023-05-20T12:22:43;6.47;;;2.47;;
4686;SDS011;2357;47.316;-1.348;2023-05-20T12:25:10;5.87;;;2.37;;
4686;SDS011;2357;47.316;-1.348;2023-05-20T12:27:37;4.73;;;2.50;;
4686;SDS011;2357;47.316;-1.348;2023-05-20T12:30:02;6.60;;;2.23;;
4686;SDS011;2357;47.316;-1.348;2023-05-20T12:32:29;3.63;;;2.00;;
4686;SDS011;2357;47.316;-1.348;2023-05-20T12:34:54;2.87;;;1.90;;
4686;SDS011;2357;47.316;-1.348;2023-05-20T12:37:20;6.60;;;2.53;;
4686;SDS011;2357;47.316;-1.348;2023-05-20T12:39:46;3.70;;;1.87;;
4686;SDS011;2357;47.316;-1.348;2023-05-20T12:42:11;5.93;;;2.90;;
4686;SDS011;2357;47.316;-1.348;2023-05-20T12:44:37;10.90;;;2.33;;
4686;SDS011;2357;47.316;-1.348;2023-05-20T12:47:03;3.73;;;2.80;;
4686;SDS011;2357;47.316;-1.348;2023-05-20T12:49:28;6.67;;;1.80;;
4686;SDS011;2357;47.316;-1.348;2023-05-20T12:51:54;9.07;;;2.20;;
4686;SDS011;2357;47.316;-1.348;2023-05-20T12:54:20;7.10;;;2.07;;
4686;SDS011;2357;47.316;-1.348;2023-05-20T12:56:45;14.53;;;2.00;;
4686;SDS011;2357;47.316;-1.348;2023-05-20T12:59:12;3.50;;;2.20;;
4686;SDS011;2357;47.316;-1.348;2023-05-20T13:01:38;9.83;;;2.60;;
4686;SDS011;2357;47.316;-1.348;2023-05-20T13:04:04;12.43;;;1.97;;
4686;SDS011;2357;47.316;-1.348;2023-05-20T13:06:30;6.03;;;1.80;;
4686;SDS011;2357;47.316;-1.348;2023-05-20T13:08:58;6.37;;;2.17;;
4686;SDS011;2357;47.316;-1.348;2023-05-20T13:11:23;8.23;;;2.20;;
4686;SDS011;2357;47.316;-1.348;2023-05-20T13:13:49;13.63;;;2.30;;
4686;SDS011;2357;47.316;-1.348;2023-05-20T13:16:15;9.53;;;2.10;;
4686;SDS011;2357;47.316;-1.348;2023-05-20T13:18:41;8.93;;;2.50;;
4686;SDS011;2357;47.316;-1.348;2023-05-20T13:21:08;2.77;;;1.70;;
4686;SDS011;2357;47.316;-1.348;2023-05-20T13:23:33;4.53;;;1.70;;
4686;SDS011;2357;47.316;-1.348;2023-05-20T13:25:59;8.73;;;3.30;;
4686;SDS011;2357;47.316;-1.348;2023-05-20T13:28:25;9.23;;;2.67;;
4686;SDS011;2357;47.316;-1.348;2023-05-20T13:30:51;12.53;;;2.50;;
4686;SDS011;2357;47.316;-1.348;2023-05-20T13:33:16;1.67;;;1.50;;
4686;SDS011;2357;47.316;-1.348;2023-05-20T13:35:42;2.30;;;1.80;;
4686;SDS011;2357;47.316;-1.348;2023-05-20T13:38:08;8.40;;;2.40;;
4686;SDS011;2357;47.316;-1.348;2023-05-20T13:40:34;2.30;;;1.40;;
4686;SDS011;2357;47.316;-1.348;2023-05-20T13:42:59;5.10;;;1.70;;
4686;SDS011;2357;47.316;-1.348;2023-05-20T13:45:25;2.97;;;1.70;;
4686;SDS011;2357;47.316;-1.348;2023-05-20T13:47:51;7.50;;;2.10;;
4686;SDS011;2357;47.316;-1.348;2023-05-20T13:50:18;3.20;;;1.60;;
4686;SDS011;2357;47.316;-1.348;2023-05-20T13:52:44;6.33;;;1.83;;
4686;SDS011;2357;47.316;-1.348;2023-05-20T13:55:09;5.70;;;2.50;;
4686;SDS011;2357;47.316;-1.348;2023-05-20T13:57:35;6.73;;;2.20;;
4686;SDS011;2357;47.316;-1.348;2023-05-20T14:00:01;2.63;;;1.73;;
4686;SDS011;2357;47.316;-1.348;2023-05-20T14:02:26;4.60;;;1.97;;
4686;SDS011;2357;47.316;-1.348;2023-05-20T14:04:52;4.10;;;2.33;;
4686;SDS011;2357;47.316;-1.348;2023-05-20T14:07:17;4.10;;;1.50;;
4686;SDS011;2357;47.316;-1.348;2023-05-20T14:09:43;4.90;;;1.93;;
4686;SDS011;2357;47.316;-1.348;2023-05-20T14:12:09;1.70;;;1.60;;
4686;SDS011;2357;47.316;-1.348;2023-05-20T14:14:34;3.43;;;1.87;;
4686;SDS011;2357;47.316;-1.348;2023-05-20T14:17:00;9.33;;;2.43;;
4686;SDS011;2357;47.316;-1.348;2023-05-20T14:19:26;7.07;;;1.90;;
4686;SDS011;2357;47.316;-1.348;2023-05-20T14:21:51;7.43;;;2.00;;
4686;SDS011;2357;47.316;-1.348;2023-05-20T14:24:17;3.73;;;1.60;;
4686;SDS011;2357;47.316;-1.348;2023-05-20T14:26:42;3.93;;;1.70;;
4686;SDS011;2357;47.316;-1.348;2023-05-20T14:29:08;15.33;;;2.43;;
4686;SDS011;2357;47.316;-1.348;2023-05-20T14:31:35;4.30;;;1.93;;
4686;SDS011;2357;47.316;-1.348;2023-05-20T14:34:02;6.03;;;1.70;;
4686;SDS011;2357;47.316;-1.348;2023-05-20T14:36:28;9.47;;;2.53;;
4686;SDS011;2357;47.316;-1.348;2023-05-20T14:38:53;2.17;;;1.77;;
4686;SDS011;2357;47.316;-1.348;2023-05-20T14:41:19;2.20;;;1.87;;
4686;SDS011;2357;47.316;-1.348;2023-05-20T14:43:46;2.33;;;1.50;;
4686;SDS011;2357;47.316;-1.348;2023-05-20T14:46:11;3.13;;;1.43;;
4686;SDS011;2357;47.316;-1.348;2023-05-20T14:48:37;2.90;;;1.60;;
4686;SDS011;2357;47.316;-1.348;2023-05-20T14:51:03;3.17;;;1.70;;
4686;SDS011;2357;47.316;-1.348;2023-05-20T14:53:28;3.20;;;1.73;;
4686;SDS011;2357;47.316;-1.348;2023-05-20T14:55:54;8.77;;;2.00;;
4686;SDS011;2357;47.316;-1.348;2023-05-20T14:58:20;4.93;;;1.90;;